createdAt,value
2019-05-12T00:00:19.139Z,8.20
2019-05-12T00:01:19.129Z,8.12
2019-05-12T00:02:19.119Z,7.99
2019-05-12T00:03:19.142Z,7.96
2019-05-12T00:04:19.448Z,7.93
2019-05-12T00:05:19.093Z,7.90
2019-05-12T00:06:19.069Z,7.87
2019-05-12T00:07:19.068Z,7.81
2019-05-12T00:08:19.056Z,7.78
2019-05-12T00:09:19.061Z,7.74
2019-05-12T00:10:19.078Z,7.71
2019-05-12T00:11:19.318Z,7.67
2019-05-12T00:12:19.018Z,7.66
2019-05-12T00:13:19.187Z,7.55
2019-05-12T00:14:19.000Z,7.53
2019-05-12T00:15:19.550Z,7.62
2019-05-12T00:16:19.025Z,7.75
2019-05-12T00:17:19.519Z,7.67
2019-05-12T00:18:19.244Z,7.58
2019-05-12T00:19:18.949Z,7.58
2019-05-12T00:20:18.926Z,7.58
2019-05-12T00:21:18.919Z,7.50
2019-05-12T00:22:18.966Z,7.45
2019-05-12T00:23:26.733Z,7.44
2019-05-12T00:24:19.887Z,7.47
2019-05-12T00:25:18.877Z,7.42
2019-05-12T00:26:18.866Z,7.37
2019-05-12T00:27:19.474Z,7.34
2019-05-12T00:28:18.925Z,7.26
2019-05-12T00:29:18.879Z,7.23
2019-05-12T00:30:18.858Z,7.24
2019-05-12T00:31:19.106Z,7.29
2019-05-12T00:32:18.808Z,7.19
2019-05-12T00:33:18.824Z,7.22
2019-05-12T00:34:18.826Z,7.16
2019-05-12T00:35:18.784Z,7.13
2019-05-12T00:36:18.795Z,7.09
2019-05-12T00:37:18.778Z,7.15
2019-05-12T00:38:18.743Z,7.15
2019-05-12T00:39:19.257Z,7.20
2019-05-12T00:40:19.162Z,7.16
2019-05-12T00:41:18.888Z,7.05
2019-05-12T00:42:18.704Z,6.99
2019-05-12T00:43:19.045Z,7.08
2019-05-12T00:44:20.074Z,7.09
2019-05-12T00:45:20.509Z,7.16
2019-05-12T00:46:19.744Z,7.16
2019-05-12T00:47:19.459Z,7.08
2019-05-12T00:48:19.334Z,7.04
2019-05-12T00:49:18.918Z,7.04
2019-05-12T00:50:18.654Z,6.98
2019-05-12T00:51:18.622Z,6.89
2019-05-12T00:52:18.846Z,6.89
2019-05-12T00:53:19.020Z,6.81
2019-05-12T00:54:18.584Z,6.79
2019-05-12T00:55:18.580Z,6.76
2019-05-12T00:56:18.578Z,6.79
2019-05-12T00:57:18.552Z,6.83
2019-05-12T00:58:19.387Z,6.86
2019-05-12T00:59:19.190Z,6.84
2019-05-12T01:00:18.514Z,6.94
2019-05-12T01:01:18.816Z,6.98
2019-05-12T01:02:18.521Z,6.90
2019-05-12T01:03:18.975Z,6.91
2019-05-12T01:04:18.540Z,6.84
2019-05-12T01:05:18.461Z,6.81
2019-05-12T01:06:18.470Z,6.81
2019-05-12T01:07:18.487Z,6.76
2019-05-12T01:08:18.804Z,6.71
2019-05-12T01:09:18.419Z,6.72
2019-05-12T01:10:18.438Z,6.81
2019-05-12T01:11:18.390Z,6.95
2019-05-12T01:12:18.380Z,7.07
2019-05-12T01:13:18.913Z,7.12
2019-05-12T01:14:18.780Z,7.17
2019-05-12T01:15:18.351Z,7.22
2019-05-12T01:16:18.850Z,7.20
2019-05-12T01:17:18.338Z,7.23
2019-05-12T01:18:18.428Z,7.22
2019-05-12T01:19:18.673Z,7.22
2019-05-12T01:20:18.580Z,7.22
2019-05-12T01:21:18.545Z,7.27
2019-05-12T01:22:18.767Z,7.35
2019-05-12T01:23:19.246Z,7.40
2019-05-12T01:24:18.756Z,7.37
2019-05-12T01:25:18.243Z,7.29
2019-05-12T01:26:18.238Z,7.22
2019-05-12T01:27:18.508Z,7.15
2019-05-12T01:28:18.465Z,7.17
2019-05-12T01:29:18.198Z,7.23
2019-05-12T01:30:18.230Z,7.19
2019-05-12T01:31:18.190Z,7.08
2019-05-12T01:32:18.328Z,7.08
2019-05-12T01:33:18.527Z,7.12
2019-05-12T01:34:18.492Z,7.08
2019-05-12T01:35:18.503Z,7.05
2019-05-12T01:36:18.215Z,6.90
2019-05-12T01:37:18.481Z,6.87
2019-05-12T01:38:18.368Z,6.80
2019-05-12T01:39:18.793Z,6.65
2019-05-12T01:40:19.043Z,6.59
2019-05-12T01:41:18.372Z,6.65
2019-05-12T01:42:18.192Z,6.73
2019-05-12T01:43:18.628Z,6.72
2019-05-12T01:44:18.498Z,6.65
2019-05-12T01:45:18.168Z,6.59
2019-05-12T01:46:18.211Z,6.54
2019-05-12T01:47:18.788Z,6.48
2019-05-12T01:48:18.521Z,6.46
2019-05-12T01:49:18.649Z,6.35
2019-05-12T01:50:17.986Z,6.36
2019-05-12T01:51:17.975Z,6.28
2019-05-12T01:52:18.554Z,6.25
2019-05-12T01:53:18.497Z,6.19
2019-05-12T01:54:18.840Z,6.16
2019-05-12T01:55:18.611Z,6.14
2019-05-12T01:56:18.246Z,6.26
2019-05-12T01:57:18.834Z,6.26
2019-05-12T01:58:19.396Z,6.26
2019-05-12T01:59:18.544Z,6.25
2019-05-12T02:01:33.963Z,6.14
2019-05-12T02:02:33.733Z,6.11
2019-05-12T02:03:33.636Z,6.10
2019-05-12T02:04:33.598Z,6.04
2019-05-12T02:05:33.585Z,5.96
2019-05-12T02:06:33.565Z,6.00
2019-05-12T02:07:33.837Z,5.96
2019-05-12T02:08:33.551Z,5.93
2019-05-12T02:09:33.599Z,5.98
2019-05-12T02:10:33.536Z,6.01
2019-05-12T02:11:33.519Z,6.04
2019-05-12T02:12:33.504Z,6.06
2019-05-12T02:13:33.502Z,6.10
2019-05-12T02:14:33.771Z,6.13
2019-05-12T02:15:33.560Z,6.10
2019-05-12T02:16:33.473Z,6.04
2019-05-12T02:17:33.451Z,6.04
2019-05-12T02:18:33.451Z,6.07
2019-05-12T02:19:33.433Z,6.09
2019-05-12T02:20:33.424Z,6.03
2019-05-12T02:21:33.744Z,5.96
2019-05-12T02:22:33.404Z,5.96
2019-05-12T02:23:33.396Z,5.98
2019-05-12T02:24:33.383Z,5.96
2019-05-12T02:25:33.371Z,5.96
2019-05-12T02:26:33.367Z,6.03
2019-05-12T02:27:33.462Z,6.03
2019-05-12T02:28:33.342Z,6.00
2019-05-12T02:29:33.332Z,5.89
2019-05-12T02:30:33.342Z,5.86
2019-05-12T02:31:33.315Z,5.83
2019-05-12T02:32:47.323Z,5.88
2019-05-12T02:33:35.699Z,5.92
2019-05-12T02:34:35.075Z,5.86
2019-05-12T02:35:35.414Z,5.85
2019-05-12T02:36:34.111Z,5.86
2019-05-12T02:37:35.702Z,5.86
2019-05-12T02:38:33.461Z,5.86
2019-05-12T02:39:35.260Z,5.81
2019-05-12T02:40:34.781Z,5.78
2019-05-12T02:41:34.591Z,5.73
2019-05-12T02:42:34.897Z,5.71
2019-05-12T02:43:34.836Z,5.74
2019-05-12T02:44:34.679Z,5.77
2019-05-12T02:45:35.588Z,5.77
2019-05-12T02:46:34.821Z,5.75
2019-05-12T02:47:34.679Z,5.70
2019-05-12T02:48:35.622Z,5.67
2019-05-12T02:49:34.921Z,5.70
2019-05-12T02:50:35.241Z,5.85
2019-05-12T02:51:35.147Z,5.95
2019-05-12T02:52:34.711Z,5.86
2019-05-12T02:53:35.126Z,5.78
2019-05-12T02:54:50.942Z,5.71
2019-05-12T02:55:35.048Z,5.64
2019-05-12T02:56:35.541Z,5.55
2019-05-12T02:57:34.309Z,5.50
2019-05-12T02:58:34.629Z,5.48
2019-05-12T02:59:34.701Z,5.43
2019-05-12T03:00:35.224Z,5.43
2019-05-12T03:01:34.733Z,5.41
2019-05-12T03:02:34.698Z,5.38
2019-05-12T03:03:35.253Z,5.37
2019-05-12T03:04:34.972Z,5.37
2019-05-12T03:05:35.054Z,5.40
2019-05-12T03:06:35.744Z,5.34
2019-05-12T03:07:34.647Z,5.34
2019-05-12T03:08:34.933Z,5.37
2019-05-12T03:09:35.179Z,5.31
2019-05-12T03:10:35.401Z,5.28
2019-05-12T03:11:35.529Z,5.22
2019-05-12T03:12:34.410Z,5.20
2019-05-12T03:13:34.576Z,5.16
2019-05-12T03:14:39.413Z,5.14
2019-05-12T03:15:36.490Z,5.12
2019-05-12T03:16:34.892Z,5.12
2019-05-12T03:17:35.567Z,5.13
2019-05-12T03:18:34.713Z,5.16
2019-05-12T03:19:34.587Z,5.14
2019-05-12T03:20:35.103Z,5.14
2019-05-12T03:21:35.163Z,5.14
2019-05-12T03:22:35.258Z,5.14
2019-05-12T03:23:35.258Z,5.16
2019-05-12T03:24:34.191Z,5.14
2019-05-12T03:25:35.847Z,5.13
2019-05-12T03:26:34.683Z,5.10
2019-05-12T03:27:35.167Z,5.05
2019-05-12T03:28:35.598Z,5.05
2019-05-12T03:29:34.337Z,5.04
2019-05-12T03:30:38.559Z,5.01
2019-05-12T03:31:39.921Z,4.98
2019-05-12T03:32:37.733Z,4.99
2019-05-12T03:33:40.651Z,4.98
2019-05-12T03:34:38.124Z,4.92
2019-05-12T03:35:41.766Z,4.91
2019-05-12T03:36:41.169Z,4.94
2019-05-12T03:37:35.372Z,4.98
2019-05-12T03:38:36.064Z,4.96
2019-05-12T03:39:34.370Z,4.96
2019-05-12T03:40:37.526Z,4.96
2019-05-12T03:41:34.830Z,4.98
2019-05-12T03:42:35.444Z,4.99
2019-05-12T03:43:35.054Z,5.02
2019-05-12T03:44:35.217Z,5.04
2019-05-12T03:45:35.453Z,4.99
2019-05-12T03:46:35.293Z,5.01
2019-05-12T03:47:35.534Z,5.01
2019-05-12T03:48:34.924Z,5.01
2019-05-12T03:49:34.762Z,4.99
2019-05-12T03:50:35.335Z,4.98
2019-05-12T03:51:35.001Z,5.04
2019-05-12T03:52:35.050Z,5.04
2019-05-12T03:53:35.190Z,5.04
2019-05-12T03:54:34.950Z,5.10
2019-05-12T03:55:38.228Z,5.13
2019-05-12T03:56:34.636Z,5.14
2019-05-12T03:57:34.526Z,5.16
2019-05-12T03:58:34.633Z,5.17
2019-05-12T03:59:34.826Z,5.25
2019-05-12T04:00:35.537Z,5.23
2019-05-12T04:01:35.887Z,5.23
2019-05-12T04:02:34.075Z,5.25
2019-05-12T04:03:34.562Z,5.30
2019-05-12T04:04:34.759Z,5.31
2019-05-12T04:05:34.890Z,5.28
2019-05-12T04:06:34.592Z,5.25
2019-05-12T04:07:34.486Z,5.19
2019-05-12T04:08:34.702Z,5.14
2019-05-12T04:09:34.838Z,5.13
2019-05-12T04:10:35.051Z,5.13
2019-05-12T04:11:35.542Z,5.13
2019-05-12T04:12:34.599Z,5.12
2019-05-12T04:13:34.115Z,5.16
2019-05-12T04:14:34.556Z,5.17
2019-05-12T04:15:34.625Z,5.16
2019-05-12T04:16:35.676Z,5.16
2019-05-12T04:17:34.990Z,5.13
2019-05-12T04:18:34.992Z,5.16
2019-05-12T04:19:34.411Z,5.19
2019-05-12T04:20:35.674Z,5.20
2019-05-12T04:21:34.898Z,5.19
2019-05-12T04:22:35.047Z,5.20
2019-05-12T04:23:34.772Z,5.23
2019-05-12T04:24:35.649Z,5.20
2019-05-12T04:25:47.759Z,5.22
2019-05-12T04:26:36.333Z,5.19
2019-05-12T04:27:34.903Z,5.19
2019-05-12T04:28:35.117Z,5.23
2019-05-12T04:29:34.816Z,5.27
2019-05-12T04:30:35.128Z,5.28
2019-05-12T04:31:34.637Z,5.31
2019-05-12T04:32:35.709Z,5.38
2019-05-12T04:33:34.689Z,5.45
2019-05-12T04:34:34.309Z,5.45
2019-05-12T04:35:34.953Z,5.41
2019-05-12T04:36:35.171Z,5.43
2019-05-12T04:37:34.976Z,5.45
2019-05-12T04:38:35.250Z,5.45
2019-05-12T04:39:34.148Z,5.45
2019-05-12T04:40:35.340Z,5.45
2019-05-12T04:41:35.092Z,5.50
2019-05-12T04:42:34.702Z,5.53
2019-05-12T04:43:35.117Z,5.53
2019-05-12T04:44:34.754Z,5.57
2019-05-12T04:45:34.619Z,5.60
2019-05-12T04:46:34.635Z,5.66
2019-05-12T04:47:34.972Z,5.68
2019-05-12T04:48:35.376Z,5.74
2019-05-12T04:49:34.509Z,5.82
2019-05-12T04:50:35.027Z,5.83
2019-05-12T04:51:34.906Z,5.82
2019-05-12T04:52:34.921Z,5.86
2019-05-12T04:53:34.908Z,5.86
2019-05-12T04:54:35.317Z,5.92
2019-05-12T04:55:35.281Z,5.89
2019-05-12T04:56:35.437Z,5.91
2019-05-12T04:57:34.618Z,5.95
2019-05-12T04:58:34.868Z,5.98
2019-05-12T04:59:34.418Z,6.03
2019-05-12T05:00:34.625Z,6.07
2019-05-12T05:01:33.741Z,6.10
2019-05-12T05:02:35.736Z,6.14
2019-05-12T05:03:34.850Z,6.11
2019-05-12T05:04:34.517Z,6.09
2019-05-12T05:05:34.970Z,6.07
2019-05-12T05:06:34.214Z,6.09
2019-05-12T05:07:31.687Z,6.13
2019-05-12T05:08:34.898Z,6.14
2019-05-12T05:09:34.802Z,6.16
2019-05-12T05:10:34.101Z,6.14
2019-05-12T05:11:34.344Z,6.10
2019-05-12T05:12:34.321Z,6.10
2019-05-12T05:13:35.523Z,6.13
2019-05-12T05:14:34.040Z,6.22
2019-05-12T05:15:34.304Z,6.41
2019-05-12T05:16:34.362Z,6.46
2019-05-12T05:17:34.511Z,6.50
2019-05-12T05:18:31.574Z,6.58
2019-05-12T05:19:33.690Z,6.63
2019-05-12T05:20:31.594Z,6.62
2019-05-12T05:21:34.241Z,6.54
2019-05-12T05:22:33.334Z,6.53
2019-05-12T05:23:33.544Z,6.53
2019-05-12T05:24:33.801Z,6.54
2019-05-12T05:25:33.930Z,6.53
2019-05-12T05:26:37.172Z,6.54
2019-05-12T05:27:33.879Z,6.65
2019-05-12T05:28:31.473Z,6.63
2019-05-12T05:29:33.293Z,6.63
2019-05-12T05:30:33.736Z,6.71
2019-05-12T05:31:33.579Z,6.73
2019-05-12T05:32:33.725Z,6.71
2019-05-12T05:33:31.429Z,6.69
2019-05-12T05:34:34.287Z,6.81
2019-05-12T05:35:35.175Z,6.90
2019-05-12T05:36:34.582Z,6.98
2019-05-12T05:37:36.932Z,6.97
2019-05-12T05:38:34.281Z,6.90
2019-05-12T05:39:35.670Z,6.90
2019-05-12T05:40:32.341Z,6.86
2019-05-12T05:41:31.613Z,6.84
2019-05-12T05:42:33.351Z,6.86
2019-05-12T05:43:33.298Z,6.90
2019-05-12T05:44:34.795Z,6.87
2019-05-12T05:45:34.707Z,6.84
2019-05-12T05:46:33.447Z,6.91
2019-05-12T05:47:33.466Z,7.01
2019-05-12T05:48:34.557Z,7.12
2019-05-12T05:49:31.252Z,7.13
2019-05-12T05:50:31.282Z,7.12
2019-05-12T05:51:33.520Z,7.09
2019-05-12T05:52:34.242Z,7.13
2019-05-12T05:53:33.554Z,7.17
2019-05-12T05:54:35.211Z,7.24
2019-05-12T05:55:33.925Z,7.26
2019-05-12T05:56:41.394Z,7.23
2019-05-12T05:57:33.655Z,7.19
2019-05-12T05:58:33.778Z,7.17
2019-05-12T05:59:33.266Z,7.23
2019-05-12T06:00:34.698Z,7.32
2019-05-12T06:01:34.515Z,7.38
2019-05-12T06:02:39.410Z,7.34
2019-05-12T06:03:33.898Z,7.27
2019-05-12T06:04:31.096Z,7.23
2019-05-12T06:05:31.153Z,7.29
2019-05-12T06:06:31.075Z,7.37
2019-05-12T06:07:37.426Z,7.38
2019-05-12T06:08:33.784Z,7.41
2019-05-12T06:09:31.047Z,7.50
2019-05-12T06:10:36.178Z,7.45
2019-05-12T06:11:34.359Z,7.41
2019-05-12T06:12:32.902Z,7.34
2019-05-12T06:13:32.371Z,7.34
2019-05-12T06:14:31.267Z,7.38
2019-05-12T06:15:35.627Z,7.42
2019-05-12T06:16:34.020Z,7.41
2019-05-12T06:17:30.964Z,7.40
2019-05-12T06:18:33.300Z,7.37
2019-05-12T06:19:31.015Z,7.35
2019-05-12T06:20:34.454Z,7.38
2019-05-12T06:21:36.854Z,7.49
2019-05-12T06:22:33.813Z,7.53
2019-05-12T06:23:35.010Z,7.55
2019-05-12T06:24:33.479Z,7.67
2019-05-12T06:25:44.635Z,7.71
2019-05-12T06:26:35.444Z,7.66
2019-05-12T06:27:32.760Z,7.66
2019-05-12T06:28:36.045Z,7.78
2019-05-12T06:29:33.344Z,7.78
2019-05-12T06:30:35.874Z,7.77
2019-05-12T06:31:33.396Z,7.81
2019-05-12T06:32:31.092Z,7.92
2019-05-12T06:33:31.601Z,7.94
2019-05-12T06:34:30.788Z,8.03
2019-05-12T06:35:35.674Z,8.11
2019-05-12T06:36:33.979Z,8.10
2019-05-12T06:37:30.753Z,8.04
2019-05-12T06:38:35.560Z,8.11
2019-05-12T06:39:34.223Z,8.20
2019-05-12T06:40:36.617Z,8.21
2019-05-12T06:41:33.625Z,8.20
2019-05-12T06:42:30.750Z,8.20
2019-05-12T06:43:34.997Z,8.32
2019-05-12T06:44:33.506Z,8.42
2019-05-12T06:45:34.099Z,8.57
2019-05-12T06:46:34.083Z,8.68
2019-05-12T06:47:30.676Z,8.66
2019-05-12T06:48:30.671Z,8.68
2019-05-12T06:49:30.623Z,8.66
2019-05-12T06:50:36.429Z,8.66
2019-05-12T06:51:33.782Z,8.66
2019-05-12T06:52:30.591Z,8.66
2019-05-12T06:53:31.120Z,8.62
2019-05-12T06:54:30.645Z,8.69
2019-05-12T06:55:34.334Z,8.79
2019-05-12T06:56:34.003Z,8.94
2019-05-12T06:57:30.828Z,8.99
2019-05-12T06:58:32.114Z,9.05
2019-05-12T06:59:30.518Z,9.16
2019-05-12T07:00:32.072Z,9.21
2019-05-12T07:01:33.486Z,9.21
2019-05-12T07:02:35.223Z,9.23
2019-05-12T07:03:34.878Z,9.45
2019-05-12T07:04:33.917Z,9.73
2019-05-12T07:05:35.949Z,9.99
2019-05-12T07:06:33.757Z,9.94
2019-05-12T07:07:33.446Z,10.15
2019-05-12T07:08:33.332Z,10.32
2019-05-12T07:09:33.255Z,10.34
2019-05-12T07:10:43.480Z,10.42
2019-05-12T07:11:42.551Z,10.53
2019-05-12T07:12:36.535Z,10.51
2019-05-12T07:13:31.370Z,10.46
2019-05-12T07:14:30.360Z,10.60
2019-05-12T07:15:35.811Z,10.58
2019-05-12T07:16:31.339Z,10.60
2019-05-12T07:17:35.667Z,10.63
2019-05-12T07:18:32.580Z,10.65
2019-05-12T07:19:33.594Z,10.71
2019-05-12T07:20:35.417Z,10.81
2019-05-12T07:21:33.499Z,11.07
2019-05-12T07:22:31.298Z,11.25
2019-05-12T07:23:31.258Z,11.07
2019-05-12T07:24:30.588Z,10.94
2019-05-12T07:25:31.549Z,10.91
2019-05-12T07:26:30.236Z,10.89
2019-05-12T07:27:36.666Z,10.88
2019-05-12T07:28:36.347Z,10.84
2019-05-12T07:29:31.319Z,10.74
2019-05-12T07:30:32.714Z,10.81
2019-05-12T07:31:30.609Z,10.88
2019-05-12T07:32:30.179Z,10.81
2019-05-12T07:33:35.281Z,10.59
2019-05-12T07:34:33.292Z,10.34
2019-05-12T07:35:33.606Z,10.18
2019-05-12T07:36:30.136Z,10.19
2019-05-12T07:37:30.177Z,10.19
2019-05-12T07:38:30.406Z,10.34
2019-05-12T07:39:30.926Z,10.53
2019-05-12T07:40:33.762Z,10.59
2019-05-12T07:41:30.107Z,10.59
2019-05-12T07:42:32.328Z,10.59
2019-05-12T07:43:33.628Z,10.65
2019-05-12T07:44:34.417Z,10.66
2019-05-12T07:45:31.035Z,11.32
2019-05-12T07:46:30.026Z,11.71
2019-05-12T07:47:30.096Z,12.38
2019-05-12T07:48:30.006Z,12.75
2019-05-12T07:49:35.201Z,12.66
2019-05-12T07:50:31.598Z,12.57
2019-05-12T07:51:30.291Z,12.51
2019-05-12T07:52:33.619Z,12.45
2019-05-12T07:53:29.955Z,12.33
2019-05-12T07:54:37.362Z,12.57
2019-05-12T07:55:30.935Z,12.49
2019-05-12T07:56:32.693Z,12.44
2019-05-12T07:57:34.507Z,12.30
2019-05-12T07:58:33.208Z,12.24
2019-05-12T07:59:38.824Z,12.04
2019-05-12T08:00:33.758Z,11.93
2019-05-12T08:01:29.873Z,11.83
2019-05-12T08:02:31.614Z,12.52
2019-05-12T08:03:29.844Z,13.14
2019-05-12T08:04:31.681Z,13.71
2019-05-12T08:05:33.497Z,14.31
2019-05-12T08:06:32.540Z,14.61
2019-05-12T08:07:30.806Z,14.02
2019-05-12T08:08:33.864Z,13.63
2019-05-12T08:09:32.468Z,13.27
2019-05-12T08:10:30.816Z,13.07
2019-05-12T08:11:36.669Z,12.93
2019-05-12T08:12:30.754Z,12.75
2019-05-12T08:13:31.099Z,12.37
2019-05-12T08:14:33.060Z,12.38
2019-05-12T08:15:29.724Z,12.66
2019-05-12T08:16:33.637Z,13.11
2019-05-12T08:17:30.699Z,13.14
2019-05-12T08:18:30.708Z,12.64
2019-05-12T08:19:30.760Z,12.56
2019-05-12T08:20:29.678Z,13.17
2019-05-12T08:21:34.729Z,13.91
2019-05-12T08:22:31.163Z,14.60
2019-05-12T08:23:29.636Z,15.12
2019-05-12T08:24:29.629Z,15.76
2019-05-12T08:25:29.613Z,15.79
2019-05-12T08:26:29.970Z,15.01
2019-05-12T08:27:29.602Z,14.35
2019-05-12T08:28:36.059Z,13.95
2019-05-12T08:29:30.613Z,14.68
2019-05-12T08:30:29.581Z,15.20
2019-05-12T08:31:34.770Z,15.08
2019-05-12T08:32:30.572Z,15.59
2019-05-12T08:33:31.830Z,15.92
2019-05-12T08:34:29.553Z,15.52
2019-05-12T08:35:34.634Z,14.81
2019-05-12T08:36:30.527Z,15.12
2019-05-12T08:37:29.492Z,15.61
2019-05-12T08:38:30.212Z,16.31
2019-05-12T08:39:29.472Z,16.58
2019-05-12T08:40:29.780Z,16.40
2019-05-12T08:41:29.453Z,16.40
2019-05-12T08:42:29.434Z,15.75
2019-05-12T08:43:29.441Z,15.30
2019-05-12T08:44:38.612Z,14.93
2019-05-12T08:45:36.500Z,14.27
2019-05-12T08:46:31.294Z,13.87
2019-05-12T08:47:35.505Z,13.58
2019-05-12T08:48:30.364Z,14.37
2019-05-12T08:49:34.125Z,15.33
2019-05-12T08:50:31.683Z,16.26
2019-05-12T08:51:29.383Z,17.11
2019-05-12T08:52:30.458Z,17.66
2019-05-12T08:53:30.332Z,17.84
2019-05-12T08:54:29.581Z,18.29
2019-05-12T08:55:31.554Z,18.17
2019-05-12T08:56:29.281Z,17.30
2019-05-12T08:57:34.960Z,16.74
2019-05-12T08:58:41.430Z,17.29
2019-05-12T08:59:30.812Z,17.62
2019-05-12T09:00:29.242Z,17.53
2019-05-12T09:01:30.869Z,17.53
2019-05-12T09:02:29.841Z,17.91
2019-05-12T09:03:30.544Z,18.34
2019-05-12T09:04:29.204Z,18.42
2019-05-12T09:05:34.564Z,18.55
2019-05-12T09:06:30.179Z,19.24
2019-05-12T09:07:30.301Z,19.58
2019-05-12T09:08:30.482Z,18.83
2019-05-12T09:09:29.141Z,18.46
2019-05-12T09:10:29.142Z,17.54
2019-05-12T09:11:29.125Z,16.90
2019-05-12T09:12:29.120Z,16.22
2019-05-12T09:13:29.111Z,15.64
2019-05-12T09:14:33.536Z,15.36
2019-05-12T09:15:30.082Z,14.93
2019-05-12T09:16:29.073Z,14.28
2019-05-12T09:17:29.062Z,13.89
2019-05-12T09:18:35.049Z,13.46
2019-05-12T09:19:30.092Z,13.21
2019-05-12T09:20:29.032Z,14.20
2019-05-12T09:21:31.829Z,15.54
2019-05-12T09:22:30.018Z,14.93
2019-05-12T09:23:32.800Z,14.34
2019-05-12T09:24:29.992Z,13.96
2019-05-12T09:25:29.040Z,13.91
2019-05-12T09:26:28.993Z,13.89
2019-05-12T09:27:28.984Z,13.62
2019-05-12T09:28:42.900Z,14.56
2019-05-12T09:29:29.961Z,15.94
2019-05-12T09:30:28.935Z,17.13
2019-05-12T09:31:29.690Z,18.09
2019-05-12T09:32:28.962Z,18.62
2019-05-12T09:33:31.891Z,18.94
2019-05-12T09:34:30.723Z,19.63
2019-05-12T09:35:34.009Z,19.80
2019-05-12T09:36:29.911Z,20.21
2019-05-12T09:37:30.933Z,20.76
2019-05-12T09:38:29.869Z,21.02
2019-05-12T09:39:34.173Z,20.79
2019-05-12T09:40:29.832Z,20.84
2019-05-12T09:41:28.830Z,20.98
2019-05-12T09:42:30.181Z,20.86
2019-05-12T09:43:28.811Z,20.71
2019-05-12T09:44:30.534Z,20.99
2019-05-12T09:45:29.991Z,20.05
2019-05-12T09:46:34.357Z,20.86
2019-05-12T09:47:30.140Z,20.90
2019-05-12T09:48:28.791Z,20.54
2019-05-12T09:49:38.616Z,19.33
2019-05-12T09:50:30.218Z,18.10
2019-05-12T09:51:35.226Z,16.88
2019-05-12T09:52:30.432Z,15.75
2019-05-12T09:53:28.752Z,14.99
2019-05-12T09:54:35.458Z,14.43
2019-05-12T09:55:29.674Z,14.72
2019-05-12T09:56:28.674Z,16.62
2019-05-12T09:57:32.499Z,18.09
2019-05-12T09:58:29.671Z,18.92
2019-05-12T09:59:28.622Z,19.75
2019-05-12T10:00:30.502Z,20.38
2019-05-12T10:01:37.324Z,20.81
2019-05-12T10:02:29.598Z,20.64
2019-05-12T10:03:30.879Z,20.81
2019-05-12T10:04:29.631Z,19.79
2019-05-12T10:05:30.516Z,19.14
2019-05-12T10:06:29.555Z,19.87
2019-05-12T10:07:28.535Z,20.95
2019-05-12T10:08:29.234Z,21.66
2019-05-12T10:09:29.814Z,20.79
2019-05-12T10:10:34.503Z,20.06
2019-05-12T10:11:29.496Z,19.14
2019-05-12T10:12:29.810Z,18.27
2019-05-12T10:13:30.190Z,17.22
2019-05-12T10:14:28.462Z,16.48
2019-05-12T10:15:28.794Z,16.16
2019-05-12T10:16:28.765Z,15.43
2019-05-12T10:17:30.202Z,16.14
2019-05-12T10:18:28.423Z,17.97
2019-05-12T10:19:28.416Z,19.55
2019-05-12T10:20:29.137Z,18.44
2019-05-12T10:21:29.502Z,17.33
2019-05-12T10:22:30.006Z,17.03
2019-05-12T10:23:29.832Z,16.48
2019-05-12T10:24:32.566Z,17.74
2019-05-12T10:25:30.718Z,19.38
2019-05-12T10:26:29.792Z,20.43
2019-05-12T10:27:31.940Z,21.60
2019-05-12T10:28:29.321Z,22.41
2019-05-12T10:29:30.654Z,22.50
2019-05-12T10:30:28.790Z,22.47
2019-05-12T10:31:29.780Z,23.05
2019-05-12T10:32:29.323Z,23.68
2019-05-12T10:33:29.046Z,24.14
2019-05-12T10:34:29.281Z,24.29
2019-05-12T10:35:29.243Z,22.97
2019-05-12T10:36:29.074Z,21.20
2019-05-12T10:37:29.489Z,21.26
2019-05-12T10:38:28.248Z,22.56
2019-05-12T10:39:28.205Z,23.01
2019-05-12T10:40:28.213Z,20.81
2019-05-12T10:41:28.194Z,19.91
2019-05-12T10:42:28.203Z,19.25
2019-05-12T10:43:28.162Z,18.03
2019-05-12T10:44:30.098Z,18.13
2019-05-12T10:45:29.144Z,18.76
2019-05-12T10:46:28.727Z,19.90
2019-05-12T10:47:28.122Z,20.31
2019-05-12T10:48:28.112Z,20.79
2019-05-12T10:49:28.095Z,19.83
2019-05-12T10:50:28.120Z,19.51
2019-05-12T10:51:28.566Z,19.21
2019-05-12T10:52:29.442Z,18.59
2019-05-12T10:53:29.873Z,17.79
2019-05-12T10:54:29.373Z,19.51
2019-05-12T10:55:28.064Z,20.65
2019-05-12T10:56:29.774Z,21.90
2019-05-12T10:57:28.026Z,20.38
2019-05-12T10:58:28.003Z,18.74
2019-05-12T10:59:32.960Z,18.42
2019-05-12T11:00:29.504Z,19.33
2019-05-12T11:01:28.484Z,20.95
2019-05-12T11:02:30.399Z,22.14
2019-05-12T11:03:28.450Z,22.56
2019-05-12T11:04:35.635Z,22.87
2019-05-12T11:05:29.905Z,23.40
2019-05-12T11:06:27.946Z,23.89
2019-05-12T11:07:29.908Z,24.71
2019-05-12T11:08:27.963Z,25.71
2019-05-12T11:09:31.598Z,24.54
2019-05-12T11:10:28.896Z,23.32
2019-05-12T11:11:32.968Z,21.21
2019-05-12T11:12:29.258Z,19.24
2019-05-12T11:13:27.846Z,19.42
2019-05-12T11:14:30.491Z,20.72
2019-05-12T11:15:28.224Z,21.56
2019-05-12T11:16:31.123Z,22.23
2019-05-12T11:17:27.814Z,23.12
2019-05-12T11:18:30.389Z,23.35
2019-05-12T11:19:27.775Z,22.62
2019-05-12T11:20:27.805Z,23.68
2019-05-12T11:21:27.755Z,22.87
2019-05-12T11:22:27.762Z,22.47
2019-05-12T11:23:27.743Z,21.42
2019-05-12T11:24:27.726Z,19.79
2019-05-12T11:25:27.719Z,18.92
2019-05-12T11:26:27.769Z,18.28
2019-05-12T11:27:27.983Z,17.84
2019-05-12T11:28:27.686Z,18.19
2019-05-12T11:29:27.676Z,20.03
2019-05-12T11:30:27.666Z,19.91
2019-05-12T11:31:27.674Z,21.09
2019-05-12T11:32:28.863Z,20.68
2019-05-12T11:33:28.637Z,22.16
2019-05-12T11:34:27.713Z,22.50
2019-05-12T11:35:28.613Z,22.47
2019-05-12T11:36:27.713Z,22.57
2019-05-12T11:37:29.091Z,22.77
2019-05-12T11:38:28.172Z,23.89
2019-05-12T11:39:30.618Z,24.73
2019-05-12T11:40:28.758Z,24.77
2019-05-12T11:41:28.553Z,23.31
2019-05-12T11:42:27.536Z,21.79
2019-05-12T11:43:29.780Z,20.58
2019-05-12T11:44:27.547Z,19.87
2019-05-12T11:45:27.507Z,19.54
2019-05-12T11:46:27.797Z,19.18
2019-05-12T11:47:27.487Z,21.05
2019-05-12T11:48:27.476Z,22.69
2019-05-12T11:49:28.123Z,22.04
2019-05-12T11:50:27.502Z,22.49
2019-05-12T11:51:30.458Z,23.15
2019-05-12T11:52:27.437Z,23.87
2019-05-12T11:53:31.049Z,24.05
2019-05-12T11:54:28.057Z,23.65
2019-05-12T11:55:31.517Z,23.50
2019-05-12T11:56:34.540Z,23.39
2019-05-12T11:57:30.282Z,23.39
2019-05-12T11:58:27.502Z,22.84
2019-05-12T11:59:27.670Z,23.57
2019-05-12T12:00:27.849Z,24.27
2019-05-12T12:01:27.380Z,25.17
2019-05-12T12:02:30.458Z,25.64
2019-05-12T12:03:27.364Z,25.44
2019-05-12T12:04:27.661Z,26.04
2019-05-12T12:05:28.265Z,26.47
2019-05-12T12:06:27.319Z,26.81
2019-05-12T12:07:27.585Z,27.39
2019-05-12T12:08:35.723Z,26.80
2019-05-12T12:09:28.433Z,26.17
2019-05-12T12:10:34.185Z,25.75
2019-05-12T12:11:28.303Z,26.52
2019-05-12T12:12:27.809Z,25.43
2019-05-12T12:13:30.156Z,24.13
2019-05-12T12:14:29.282Z,22.39
2019-05-12T12:15:30.290Z,21.36
2019-05-12T12:16:28.140Z,22.34
2019-05-12T12:17:31.087Z,21.71
2019-05-12T12:18:28.840Z,20.89
2019-05-12T12:19:34.932Z,21.24
2019-05-12T12:20:28.189Z,22.77
2019-05-12T12:21:27.461Z,22.69
2019-05-12T12:22:29.860Z,22.38
2019-05-12T12:23:27.120Z,21.08
2019-05-12T12:24:31.424Z,20.24
2019-05-12T12:25:27.652Z,19.51
2019-05-12T12:26:30.264Z,21.27
2019-05-12T12:27:27.481Z,22.83
2019-05-12T12:28:27.661Z,22.16
2019-05-12T12:29:27.553Z,20.65
2019-05-12T12:30:27.661Z,19.33
2019-05-12T12:31:29.655Z,18.42
2019-05-12T12:32:28.680Z,17.81
2019-05-12T12:33:31.107Z,17.18
2019-05-12T12:34:30.077Z,16.71
2019-05-12T12:35:27.663Z,16.42
2019-05-12T12:36:26.983Z,16.44
2019-05-12T12:37:27.661Z,16.42
2019-05-12T12:38:26.996Z,16.40
2019-05-12T12:39:27.856Z,16.31
2019-05-12T12:40:28.826Z,16.22
2019-05-12T12:41:26.939Z,15.96
2019-05-12T12:42:30.377Z,15.85
2019-05-12T12:43:27.961Z,15.79
2019-05-12T12:44:26.894Z,15.79
2019-05-12T12:45:30.394Z,15.86
2019-05-12T12:46:28.563Z,15.79
2019-05-12T12:47:26.866Z,15.72
2019-05-12T12:48:29.722Z,15.74
2019-05-12T12:49:29.272Z,15.75
2019-05-12T12:50:30.576Z,15.63
2019-05-12T12:51:26.821Z,15.82
2019-05-12T12:52:26.822Z,16.89
2019-05-12T12:53:27.612Z,18.46
2019-05-12T12:54:26.792Z,20.13
2019-05-12T12:55:27.762Z,21.53
2019-05-12T12:56:29.969Z,22.96
2019-05-12T12:57:27.932Z,24.13
2019-05-12T12:58:31.141Z,24.57
2019-05-12T12:59:27.732Z,24.80
2019-05-12T13:00:32.003Z,24.94
2019-05-12T13:01:30.900Z,22.96
2019-05-12T13:02:27.352Z,21.34
2019-05-12T13:03:29.807Z,20.49
2019-05-12T13:04:28.851Z,19.84
2019-05-12T13:05:26.708Z,19.40
2019-05-12T13:06:26.671Z,19.11
2019-05-12T13:07:26.743Z,18.61